createdAt,value
2017-08-28T00:00:24.575Z,1013.52
2017-08-28T00:01:18.584Z,1013.51
2017-08-28T00:02:18.525Z,1013.51
2017-08-28T00:03:13.696Z,1013.55
2017-08-28T00:04:13.836Z,1013.52
2017-08-28T00:05:07.686Z,1013.52
2017-08-28T00:06:08.728Z,1013.52
2017-08-28T00:07:09.783Z,1013.50
2017-08-28T00:08:09.798Z,1013.52
2017-08-28T00:09:09.776Z,1013.53
2017-08-28T00:10:04.810Z,1013.50
2017-08-28T00:10:58.949Z,1013.51
2017-08-28T00:11:58.906Z,1013.56
2017-08-28T00:12:53.977Z,1013.54
2017-08-28T00:13:48.983Z,1013.54
2017-08-28T00:14:50.170Z,1013.54
2017-08-28T00:15:50.028Z,1013.52
2017-08-28T00:16:50.212Z,1013.53
2017-08-28T00:17:38.200Z,1013.50
2017-08-28T00:18:32.137Z,1013.50
2017-08-28T00:19:26.297Z,1013.55
2017-08-28T00:20:20.353Z,1013.52
2017-08-28T00:21:14.348Z,1013.50
2017-08-28T00:22:08.376Z,1013.55
2017-08-28T00:23:03.409Z,1013.55
2017-08-28T00:23:52.471Z,1013.56
2017-08-28T00:24:46.550Z,1013.57
2017-08-28T00:25:40.466Z,1013.56
2017-08-28T00:26:35.548Z,1013.57
2017-08-28T00:27:23.607Z,1013.58
2017-08-28T00:28:18.690Z,1013.60
2017-08-28T00:29:12.708Z,1013.57
2017-08-28T00:30:13.806Z,1013.58
2017-08-28T00:31:13.776Z,1013.58
2017-08-28T00:32:13.846Z,1013.61
2017-08-28T00:33:07.743Z,1013.61
2017-08-28T00:34:07.921Z,1013.62
2017-08-28T00:35:02.919Z,1013.60
2017-08-28T00:35:57.925Z,1013.63
2017-08-28T00:36:58.985Z,1013.61
2017-08-28T00:37:59.039Z,1013.61
2017-08-28T00:38:54.125Z,1013.63
2017-08-28T00:39:54.075Z,1013.61
2017-08-28T00:40:48.093Z,1013.62
2017-08-28T00:41:49.136Z,1013.63
2017-08-28T00:42:49.207Z,1013.62
2017-08-28T00:43:44.203Z,1013.61
2017-08-28T00:44:44.173Z,1013.59
2017-08-28T00:45:38.235Z,1013.62
2017-08-28T00:46:38.371Z,1013.60
2017-08-28T00:47:33.321Z,1013.66
2017-08-28T00:48:28.422Z,1013.63
2017-08-28T00:49:28.402Z,1013.62
2017-08-28T00:50:23.399Z,1013.61
2017-08-28T00:51:18.538Z,1013.59
2017-08-28T00:52:24.479Z,1013.54
2017-08-28T00:53:18.479Z,1013.57
2017-08-28T00:54:18.487Z,1013.56
2017-08-28T00:55:13.624Z,1013.58
2017-08-28T00:56:13.649Z,1013.54
2017-08-28T00:57:07.661Z,1013.59
2017-08-28T00:58:07.696Z,1013.57
2017-08-28T00:59:02.699Z,1013.56
2017-08-28T00:59:57.836Z,1013.60
2017-08-28T01:00:58.896Z,1013.60
2017-08-28T01:01:59.863Z,1013.56
2017-08-28T01:02:54.908Z,1013.55
2017-08-28T01:03:49.011Z,1013.57
2017-08-28T01:04:48.905Z,1013.55
2017-08-28T01:05:43.958Z,1013.55
2017-08-28T01:06:44.025Z,1013.54
2017-08-28T01:07:44.043Z,1013.54
2017-08-28T01:08:50.056Z,1013.56
2017-08-28T01:09:45.032Z,1013.52
2017-08-28T01:10:45.167Z,1013.51
2017-08-28T01:11:40.126Z,1013.53
2017-08-28T01:12:40.206Z,1013.51
2017-08-28T01:13:40.269Z,1013.52
2017-08-28T01:14:46.257Z,1013.48
2017-08-28T01:15:46.204Z,1013.48
2017-08-28T01:16:47.280Z,1013.48
2017-08-28T01:17:47.380Z,1013.44
2017-08-28T01:18:47.308Z,1013.43
2017-08-28T01:19:41.379Z,1013.44
2017-08-28T01:20:41.587Z,1013.39
2017-08-28T01:21:36.478Z,1013.39
2017-08-28T01:22:36.532Z,1013.33
2017-08-28T01:23:30.599Z,1013.32
2017-08-28T01:24:30.534Z,1013.31
2017-08-28T01:25:25.657Z,1013.29
2017-08-28T01:26:20.707Z,1013.30
2017-08-28T01:27:20.653Z,1013.30
2017-08-28T01:28:15.732Z,1013.26
2017-08-28T01:29:10.836Z,1013.29
2017-08-28T01:30:11.767Z,1013.29
2017-08-28T01:31:11.754Z,1013.30
2017-08-28T01:32:11.861Z,1013.25
2017-08-28T01:33:06.821Z,1013.31
2017-08-28T01:34:00.887Z,1013.28
2017-08-28T01:35:00.890Z,1013.30
2017-08-28T01:35:55.930Z,1013.30
2017-08-28T01:36:56.050Z,1013.31
2017-08-28T01:37:50.055Z,1013.33
2017-08-28T01:38:50.025Z,1013.33
2017-08-28T01:39:45.117Z,1013.32
2017-08-28T01:40:40.245Z,1013.32
2017-08-28T01:41:40.257Z,1013.31
2017-08-28T01:42:35.288Z,1013.34
2017-08-28T01:43:30.243Z,1013.32
2017-08-28T01:44:31.428Z,1013.32
2017-08-28T01:45:31.297Z,1013.32
2017-08-28T01:46:31.441Z,1013.30
2017-08-28T01:47:26.394Z,1013.31
2017-08-28T01:48:20.462Z,1013.33
2017-08-28T01:49:20.589Z,1013.27
2017-08-28T01:50:15.335Z,1013.25
2017-08-28T01:51:15.641Z,1013.27
2017-08-28T01:52:09.627Z,1013.27
2017-08-28T01:53:09.677Z,1013.28
2017-08-28T01:54:04.677Z,1013.29
2017-08-28T01:54:59.670Z,1013.30
2017-08-28T01:55:59.784Z,1013.28
2017-08-28T01:56:54.784Z,1013.29
2017-08-28T01:57:49.852Z,1013.29
2017-08-28T01:58:50.894Z,1013.24
2017-08-28T01:59:50.870Z,1013.26
2017-08-28T02:00:50.948Z,1013.23
2017-08-28T02:01:45.990Z,1013.26
2017-08-28T02:02:40.090Z,1013.27
2017-08-28T02:03:40.142Z,1013.21
2017-08-28T02:04:35.136Z,1013.26
2017-08-28T02:05:35.136Z,1013.25
2017-08-28T02:06:29.190Z,1013.23
2017-08-28T02:07:29.174Z,1013.20
2017-08-28T02:08:24.257Z,1013.22
2017-08-28T02:09:19.234Z,1013.20
2017-08-28T02:10:19.263Z,1013.21
2017-08-28T02:11:14.351Z,1013.21
2017-08-28T02:12:09.297Z,1013.18
2017-08-28T02:13:10.296Z,1013.17
2017-08-28T02:14:10.403Z,1013.18
2017-08-28T02:15:10.468Z,1013.14
2017-08-28T02:16:05.525Z,1013.12
2017-08-28T02:16:59.476Z,1013.10
2017-08-28T02:17:59.597Z,1013.11
2017-08-28T02:18:54.565Z,1013.10
2017-08-28T02:19:54.536Z,1013.09
2017-08-28T02:20:48.708Z,1013.10
2017-08-28T02:21:48.664Z,1013.12
2017-08-28T02:22:43.745Z,1013.08
2017-08-28T02:23:38.754Z,1013.11
2017-08-28T02:24:38.810Z,1013.18
2017-08-28T02:25:33.790Z,1013.09
2017-08-28T02:26:28.958Z,1013.14
2017-08-28T02:27:29.983Z,1013.16
2017-08-28T02:28:29.942Z,1013.15
2017-08-28T02:29:29.964Z,1013.10
2017-08-28T02:30:25.064Z,1013.08
2017-08-28T02:31:19.060Z,1013.11
2017-08-28T02:32:19.104Z,1013.11
2017-08-28T02:33:14.099Z,1013.14
2017-08-28T02:34:14.181Z,1013.10
2017-08-28T02:35:08.191Z,1013.11
2017-08-28T02:36:08.160Z,1013.10
2017-08-28T02:37:03.230Z,1013.12
2017-08-28T02:37:58.269Z,1013.11
2017-08-28T02:38:58.326Z,1013.09
2017-08-28T02:39:53.341Z,1013.07
2017-08-28T02:40:48.406Z,1013.12
2017-08-28T02:41:49.449Z,1013.06
2017-08-28T02:42:50.378Z,1013.12
2017-08-28T02:43:50.503Z,1013.09
2017-08-28T02:44:51.580Z,1013.08
2017-08-28T02:45:45.521Z,1013.09
2017-08-28T02:46:46.651Z,1013.10
2017-08-28T02:47:46.567Z,1013.08
2017-08-28T02:48:41.648Z,1013.06
2017-08-28T02:49:41.933Z,1013.08
2017-08-28T02:50:35.802Z,1013.09
2017-08-28T02:51:35.809Z,1013.09
2017-08-28T02:52:30.745Z,1013.06
2017-08-28T02:53:30.822Z,1013.06
2017-08-28T02:54:30.866Z,1013.10
2017-08-28T02:55:30.924Z,1013.04
2017-08-28T02:56:24.860Z,1013.06
2017-08-28T02:57:24.891Z,1013.12
2017-08-28T02:58:20.022Z,1013.08
2017-08-28T02:59:15.080Z,1013.05
2017-08-28T03:00:15.032Z,1013.08
2017-08-28T03:01:10.257Z,1013.06
2017-08-28T03:02:05.193Z,1013.10
2017-08-28T03:03:11.190Z,1013.11
2017-08-28T03:04:05.213Z,1013.11
2017-08-28T03:05:05.321Z,1013.11
2017-08-28T03:06:00.136Z,1013.15
2017-08-28T03:07:00.318Z,1013.14
2017-08-28T03:07:54.386Z,1013.15
2017-08-28T03:08:54.337Z,1013.17
2017-08-28T03:09:49.352Z,1013.16
2017-08-28T03:10:44.427Z,1013.14
2017-08-28T03:11:44.466Z,1013.15
2017-08-28T03:12:39.477Z,1013.13
2017-08-28T03:13:34.544Z,1013.13
2017-08-28T03:14:34.582Z,1013.15
2017-08-28T03:15:29.545Z,1013.13
2017-08-28T03:16:24.640Z,1013.13
2017-08-28T03:17:25.679Z,1013.14
2017-08-28T03:18:25.761Z,1013.09
2017-08-28T03:19:25.767Z,1013.09
2017-08-28T03:20:20.790Z,1013.08
2017-08-28T03:21:14.811Z,1013.10
2017-08-28T03:22:14.775Z,1013.09
2017-08-28T03:23:09.861Z,1013.07
2017-08-28T03:24:09.922Z,1013.09
2017-08-28T03:25:03.953Z,1013.03
2017-08-28T03:26:03.966Z,1013.09
2017-08-28T03:26:58.964Z,1013.09
2017-08-28T03:27:54.020Z,1013.12
2017-08-28T03:28:54.001Z,1013.07
2017-08-28T03:29:49.082Z,1013.08
2017-08-28T03:30:44.108Z,1013.07
2017-08-28T03:31:45.037Z,1013.09
2017-08-28T03:32:45.157Z,1013.08
2017-08-28T03:33:45.144Z,1013.10
2017-08-28T03:34:40.207Z,1013.07
2017-08-28T03:35:34.200Z,1013.04
2017-08-28T03:36:34.224Z,1013.03
2017-08-28T03:37:29.302Z,1013.04
2017-08-28T03:38:29.496Z,1012.98
2017-08-28T03:39:23.382Z,1013.06
2017-08-28T03:40:23.354Z,1013.06
2017-08-28T03:41:18.584Z,1013.05
2017-08-28T03:42:13.424Z,1013.03
2017-08-28T03:43:13.514Z,1013.01
2017-08-28T03:44:08.600Z,1013.04
2017-08-28T03:45:03.587Z,1013.00
2017-08-28T03:46:04.625Z,1013.03
2017-08-28T03:47:04.726Z,1013.03
2017-08-28T03:48:04.787Z,1013.03
2017-08-28T03:48:59.733Z,1013.00
2017-08-28T03:49:59.830Z,1012.96
2017-08-28T03:50:59.380Z,1013.00
2017-08-28T03:51:53.467Z,1013.01
2017-08-28T03:52:53.943Z,1013.00
2017-08-28T03:53:48.536Z,1013.01
2017-08-28T03:54:48.488Z,1013.05
2017-08-28T03:55:48.627Z,1013.02
2017-08-28T03:56:48.830Z,1013.08
2017-08-28T03:57:43.054Z,1013.08
2017-08-28T03:58:42.694Z,1013.04
2017-08-28T03:59:38.098Z,1013.06
2017-08-28T04:00:38.117Z,1013.04
2017-08-28T04:01:32.017Z,1013.04
2017-08-28T04:02:31.919Z,1013.05
2017-08-28T04:03:27.403Z,1013.05
2017-08-28T04:04:21.856Z,1013.06
2017-08-28T04:05:22.210Z,1013.05
2017-08-28T04:06:17.129Z,1013.05
2017-08-28T04:07:12.316Z,1013.05
2017-08-28T04:08:13.456Z,1013.00
2017-08-28T04:09:13.144Z,1013.05
2017-08-28T04:10:13.426Z,1013.08
2017-08-28T04:11:08.465Z,1013.03
2017-08-28T04:12:08.612Z,1013.05
2017-08-28T04:13:08.536Z,1013.02
2017-08-28T04:14:02.750Z,1013.06
2017-08-28T04:15:02.631Z,1013.02
2017-08-28T04:15:57.792Z,1013.06
2017-08-28T04:16:52.781Z,1013.06
2017-08-28T04:17:52.877Z,1013.11
2017-08-28T04:18:47.832Z,1013.12
2017-08-28T04:19:42.779Z,1013.10
2017-08-28T04:20:42.932Z,1013.09
2017-08-28T04:21:37.961Z,1013.10
2017-08-28T04:22:32.994Z,1013.09
2017-08-28T04:23:32.912Z,1013.09
2017-08-28T04:24:27.966Z,1013.08
2017-08-28T04:25:23.044Z,1013.08
2017-08-28T04:26:17.075Z,1013.11
2017-08-28T04:27:17.168Z,1013.11
2017-08-28T04:28:12.133Z,1013.08
2017-08-28T04:29:12.122Z,1013.14
2017-08-28T04:30:12.158Z,1013.12
2017-08-28T04:31:12.321Z,1013.12
2017-08-28T04:32:06.309Z,1013.14
2017-08-28T04:33:06.254Z,1013.16
2017-08-28T04:34:01.384Z,1013.13
2017-08-28T04:34:56.451Z,1013.16
2017-08-28T04:35:50.510Z,1013.18
2017-08-28T04:36:50.482Z,1013.14
2017-08-28T04:37:45.767Z,1013.16
2017-08-28T04:38:40.524Z,1013.15
2017-08-28T04:39:40.606Z,1013.14
2017-08-28T04:40:35.642Z,1013.19
2017-08-28T04:41:35.678Z,1013.19
2017-08-28T04:42:36.715Z,1013.19
2017-08-28T04:43:37.698Z,1013.21
2017-08-28T04:44:31.791Z,1013.22
2017-08-28T04:45:31.815Z,1013.22
2017-08-28T04:46:26.760Z,1013.25
2017-08-28T04:47:26.782Z,1013.26
2017-08-28T04:48:27.847Z,1013.23
2017-08-28T04:49:28.909Z,1013.27
2017-08-28T04:50:30.048Z,1013.26
2017-08-28T04:51:23.917Z,1013.24
2017-08-28T04:52:24.055Z,1013.25
2017-08-28T04:53:19.070Z,1013.25
2017-08-28T04:54:19.077Z,1013.23
2017-08-28T04:55:20.107Z,1013.24
2017-08-28T04:56:21.228Z,1013.25
2017-08-28T04:57:22.201Z,1013.23
2017-08-28T04:58:16.250Z,1013.28
2017-08-28T04:59:16.309Z,1013.27
2017-08-28T05:00:11.335Z,1013.24
2017-08-28T05:01:06.293Z,1013.25
2017-08-28T05:02:06.377Z,1013.23
2017-08-28T05:03:06.464Z,1013.27
2017-08-28T05:03:55.380Z,1013.26
2017-08-28T05:04:44.414Z,1013.27
2017-08-28T05:05:33.458Z,1013.26
2017-08-28T05:06:21.611Z,1013.27
2017-08-28T05:07:15.617Z,1013.28
2017-08-28T05:08:03.669Z,1013.28
2017-08-28T05:08:52.724Z,1013.27
2017-08-28T05:09:40.693Z,1013.32
2017-08-28T05:10:29.793Z,1013.33
2017-08-28T05:11:17.786Z,1013.30
2017-08-28T05:12:11.851Z,1013.38
2017-08-28T05:13:11.758Z,1013.35
2017-08-28T05:14:11.939Z,1013.32
2017-08-28T05:15:11.895Z,1013.34
2017-08-28T05:16:12.032Z,1013.34
2017-08-28T05:17:12.012Z,1013.35
2017-08-28T05:18:11.990Z,1013.32
2017-08-28T05:19:07.139Z,1013.33
2017-08-28T05:20:02.182Z,1013.35
2017-08-28T05:20:51.218Z,1013.32
2017-08-28T05:21:39.195Z,1013.33
2017-08-28T05:22:28.195Z,1013.37
2017-08-28T05:23:16.291Z,1013.35
2017-08-28T05:24:05.249Z,1013.30
2017-08-28T05:24:54.325Z,1013.31
2017-08-28T05:25:43.421Z,1013.30
2017-08-28T05:26:32.421Z,1013.30
2017-08-28T05:27:32.613Z,1013.32
2017-08-28T05:28:32.501Z,1013.34
2017-08-28T05:29:32.658Z,1013.34
2017-08-28T05:30:26.571Z,1013.35
2017-08-28T05:31:26.717Z,1013.34
2017-08-28T05:32:15.805Z,1013.34
2017-08-28T05:33:04.737Z,1013.39
2017-08-28T05:33:52.808Z,1013.36
2017-08-28T05:34:52.813Z,1013.34
2017-08-28T05:35:47.805Z,1013.38
2017-08-28T05:36:35.898Z,1013.35
2017-08-28T05:37:24.057Z,1013.35
2017-08-28T05:38:17.945Z,1013.38
2017-08-28T05:39:11.988Z,1013.34
2017-08-28T05:40:07.158Z,1013.32
2017-08-28T05:41:02.056Z,1013.40
2017-08-28T05:41:50.187Z,1013.39
2017-08-28T05:42:45.234Z,1013.36
2017-08-28T05:43:44.885Z,1013.37
2017-08-28T05:44:34.091Z,1013.38
2017-08-28T05:45:22.159Z,1013.33
2017-08-28T05:46:11.189Z,1013.36
2017-08-28T05:46:59.336Z,1013.36
2017-08-28T05:47:48.485Z,1013.34
2017-08-28T05:48:42.440Z,1013.30
2017-08-28T05:49:31.424Z,1013.32
2017-08-28T05:50:25.468Z,1013.31
2017-08-28T05:51:13.226Z,1013.31
2017-08-28T05:52:02.683Z,1013.32
2017-08-28T05:52:56.703Z,1013.34
2017-08-28T05:53:57.688Z,1013.32
2017-08-28T05:54:52.807Z,1013.33
2017-08-28T05:55:46.875Z,1013.34
2017-08-28T05:56:34.852Z,1013.32
2017-08-28T05:57:22.744Z,1013.33
2017-08-28T05:58:22.670Z,1013.35
2017-08-28T05:59:17.951Z,1013.33
2017-08-28T06:00:18.085Z,1013.37
2017-08-28T06:01:12.140Z,1013.36
2017-08-28T06:02:12.120Z,1013.37
2017-08-28T06:03:06.614Z,1013.38
2017-08-28T06:03:54.197Z,1013.39
2017-08-28T06:04:42.197Z,1013.38
2017-08-28T06:05:43.298Z,1013.42
2017-08-28T06:06:37.016Z,1013.36
2017-08-28T06:07:31.319Z,1013.37
2017-08-28T06:08:25.305Z,1013.33
2017-08-28T06:09:13.453Z,1013.36
2017-08-28T06:10:07.482Z,1013.37
2017-08-28T06:11:02.431Z,1013.38
2017-08-28T06:11:56.649Z,1013.38
2017-08-28T06:12:57.609Z,1013.36
2017-08-28T06:13:51.657Z,1013.37
2017-08-28T06:14:46.701Z,1013.35
2017-08-28T06:15:46.850Z,1013.37
2017-08-28T06:16:41.863Z,1013.35
2017-08-28T06:17:35.860Z,1013.33
2017-08-28T06:18:24.869Z,1013.34
2017-08-28T06:19:20.079Z,1013.34
2017-08-28T06:20:20.028Z,1013.37
2017-08-28T06:21:14.019Z,1013.39
2017-08-28T06:22:09.097Z,1013.32
2017-08-28T06:22:58.131Z,1013.33
2017-08-28T06:23:58.227Z,1013.34
2017-08-28T06:24:53.282Z,1013.38
2017-08-28T06:25:47.248Z,1013.39
2017-08-28T06:26:41.291Z,1013.40
2017-08-28T06:27:36.403Z,1013.37
2017-08-28T06:28:30.415Z,1013.36
2017-08-28T06:29:24.596Z,1013.36
2017-08-28T06:30:19.539Z,1013.35
2017-08-28T06:31:08.592Z,1013.36
2017-08-28T06:32:03.636Z,1013.33
2017-08-28T06:32:58.649Z,1013.36
2017-08-28T06:33:47.698Z,1013.32
2017-08-28T06:34:35.857Z,1013.30
2017-08-28T06:35:23.917Z,1013.32
2017-08-28T06:36:18.839Z,1013.36
2017-08-28T06:37:07.847Z,1013.34
2017-08-28T06:38:01.964Z,1013.31
2017-08-28T06:38:55.947Z,1013.32
2017-08-28T06:39:44.049Z,1013.33
2017-08-28T06:40:38.252Z,1013.34
2017-08-28T06:41:32.211Z,1013.34
2017-08-28T06:42:33.198Z,1013.34
2017-08-28T06:43:34.346Z,1013.33
2017-08-28T06:44:28.214Z,1013.35
2017-08-28T06:45:17.336Z,1013.35
2017-08-28T06:46:12.697Z,1013.32
2017-08-28T06:47:07.407Z,1013.35
2017-08-28T06:48:01.508Z,1013.38
2017-08-28T06:48:55.553Z,1013.40
2017-08-28T06:49:43.615Z,1013.38
2017-08-28T06:50:37.686Z,1013.45
2017-08-28T06:51:25.747Z,1013.43
2017-08-28T06:52:26.780Z,1013.43
2017-08-28T06:53:21.799Z,1013.39
2017-08-28T06:54:09.905Z,1013.40
2017-08-28T06:54:58.930Z,1013.38
2017-08-28T06:55:47.864Z,1013.39
2017-08-28T06:56:37.141Z,1013.39
2017-08-28T06:57:32.103Z,1013.38
2017-08-28T06:58:27.145Z,1013.38
2017-08-28T06:59:28.204Z,1013.40
2017-08-28T07:00:22.314Z,1013.44
2017-08-28T07:01:17.231Z,1013.44
2017-08-28T07:02:05.413Z,1013.43
2017-08-28T07:02:59.352Z,1013.42
2017-08-28T07:03:59.446Z,1013.47
2017-08-28T07:04:47.557Z,1013.46
2017-08-28T07:05:36.581Z,1013.46
2017-08-28T07:06:25.688Z,1013.49
2017-08-28T07:07:25.663Z,1013.47
2017-08-28T07:08:20.674Z,1013.48
2017-08-28T07:09:26.788Z,1013.48
2017-08-28T07:10:20.827Z,1013.48
2017-08-28T07:11:15.939Z,1013.52
2017-08-28T07:12:04.865Z,1013.51
2017-08-28T07:12:54.027Z,1013.50
2017-08-28T07:13:47.960Z,1013.49
2017-08-28T07:14:43.063Z,1013.50
2017-08-28T07:15:37.083Z,1013.49
2017-08-28T07:16:25.212Z,1013.52
2017-08-28T07:17:25.210Z,1013.50
2017-08-28T07:18:19.299Z,1013.51
2017-08-28T07:19:14.220Z,1013.52
2017-08-28T07:20:08.416Z,1013.50
2017-08-28T07:20:56.431Z,1013.52
2017-08-28T07:21:51.564Z,1013.51
2017-08-28T07:22:40.574Z,1013.54
2017-08-28T07:23:34.658Z,1013.57
2017-08-28T07:24:35.683Z,1013.57
2017-08-28T07:25:29.737Z,1013.60
2017-08-28T07:26:18.778Z,1013.61
2017-08-28T07:27:07.794Z,1013.64
2017-08-28T07:28:02.980Z,1013.66
2017-08-28T07:28:51.997Z,1013.64
2017-08-28T07:29:53.002Z,1013.64
2017-08-28T07:30:47.106Z,1013.62
2017-08-28T07:31:36.099Z,1013.66
2017-08-28T07:32:25.214Z,1013.64
2017-08-28T07:33:19.255Z,1013.63
2017-08-28T07:34:08.376Z,1013.67
2017-08-28T07:35:03.415Z,1013.65
2017-08-28T07:35:57.508Z,1013.67
2017-08-28T07:36:57.460Z,1013.72
2017-08-28T07:37:46.540Z,1013.68
2017-08-28T07:38:41.582Z,1013.68
2017-08-28T07:39:35.652Z,1013.65
2017-08-28T07:40:24.698Z,1013.62
2017-08-28T07:41:24.644Z,1013.61
2017-08-28T07:42:18.790Z,1013.62
2017-08-28T07:43:18.826Z,1013.62
2017-08-28T07:44:12.829Z,1013.62
2017-08-28T07:45:07.978Z,1013.62
2017-08-28T07:46:07.956Z,1013.63
2017-08-28T07:46:57.068Z,1013.62
2017-08-28T07:47:46.229Z,1013.62
2017-08-28T07:48:40.196Z,1013.64
2017-08-28T07:49:40.184Z,1013.59
2017-08-28T07:50:34.365Z,1013.64
2017-08-28T07:51:29.425Z,1013.65
2017-08-28T07:52:23.379Z,1013.65
2017-08-28T07:53:18.563Z,1013.63
2017-08-28T07:54:07.495Z,1013.65
2017-08-28T07:54:56.650Z,1013.64
2017-08-28T07:55:50.698Z,1013.66
2017-08-28T07:56:38.668Z,1013.64
2017-08-28T07:57:27.699Z,1013.66
2017-08-28T07:58:28.826Z,1013.69
2017-08-28T07:59:22.802Z,1013.68
2017-08-28T08:00:12.045Z,1013.71
2017-08-28T08:01:01.134Z,1013.69
2017-08-28T08:01:55.060Z,1013.69
2017-08-28T08:02:49.133Z,1013.72
2017-08-28T08:03:43.135Z,1013.71
2017-08-28T08:04:44.248Z,1013.73
2017-08-28T08:05:32.312Z,1013.68
2017-08-28T08:06:26.361Z,1013.70
2017-08-28T08:07:15.402Z,1013.70
2017-08-28T08:08:04.437Z,1013.72
2017-08-28T08:08:58.546Z,1013.71
2017-08-28T08:09:46.549Z,1013.74
2017-08-28T08:10:40.614Z,1013.72
2017-08-28T08:11:28.703Z,1013.73
2017-08-28T08:12:17.715Z,1013.72
2017-08-28T08:13:17.837Z,1013.72
2017-08-28T08:14:06.906Z,1013.71
2017-08-28T08:14:55.954Z,1013.70
2017-08-28T08:15:50.018Z,1013.65
2017-08-28T08:16:38.104Z,1013.69
2017-08-28T08:17:32.101Z,1013.70
2017-08-28T08:18:32.210Z,1013.66
2017-08-28T08:19:20.152Z,1013.67
2017-08-28T08:20:09.203Z,1013.64
2017-08-28T08:20:58.313Z,1013.65
2017-08-28T08:21:58.429Z,1013.62
2017-08-28T08:22:52.387Z,1013.69
2017-08-28T08:23:46.555Z,1013.70
2017-08-28T08:24:34.632Z,1013.70
2017-08-28T08:25:29.639Z,1013.73
2017-08-28T08:26:18.759Z,1013.71
2017-08-28T08:27:13.879Z,1013.73
2017-08-28T08:28:14.881Z,1013.71
2017-08-28T08:29:14.923Z,1013.73
2017-08-28T08:30:02.866Z,1013.72
2017-08-28T08:31:03.066Z,1013.71
2017-08-28T08:31:58.052Z,1013.73
2017-08-28T08:32:52.316Z,1013.74
2017-08-28T08:33:46.221Z,1013.73
2017-08-28T08:34:46.234Z,1013.75
2017-08-28T08:35:40.330Z,1013.76
2017-08-28T08:36:29.388Z,1013.73
2017-08-28T08:37:30.358Z,1013.68
2017-08-28T08:38:25.470Z,1013.70
2017-08-28T08:39:20.559Z,1013.68
2017-08-28T08:40:14.599Z,1013.69
2017-08-28T08:41:03.684Z,1013.75
2017-08-28T08:42:04.754Z,1013.73
2017-08-28T08:43:04.738Z,1013.73
2017-08-28T08:43:53.847Z,1013.72
2017-08-28T08:44:42.886Z,1013.70
2017-08-28T08:45:31.992Z,1013.68
2017-08-28T08:46:26.028Z,1013.68
2017-08-28T08:47:21.090Z,1013.65
2017-08-28T08:48:16.103Z,1013.64
2017-08-28T08:49:10.189Z,1013.65
2017-08-28T08:50:05.248Z,1013.68
2017-08-28T08:51:00.297Z,1013.70
2017-08-28T08:51:54.324Z,1013.64
2017-08-28T08:52:48.558Z,1013.64
2017-08-28T08:53:48.482Z,1013.66
2017-08-28T08:54:37.600Z,1013.66
2017-08-28T08:55:25.601Z,1013.61
2017-08-28T08:56:13.703Z,1013.56
2017-08-28T08:57:01.803Z,1013.59
2017-08-28T08:57:49.915Z,1013.60
2017-08-28T08:58:43.901Z,1013.65
2017-08-28T08:59:38.008Z,1013.62
2017-08-28T09:00:31.939Z,1013.59
2017-08-28T09:01:26.105Z,1013.66
2017-08-28T09:02:26.024Z,1013.65
2017-08-28T09:03:15.124Z,1013.63
2017-08-28T09:04:09.221Z,1013.67
2017-08-28T09:04:58.310Z,1013.69
2017-08-28T09:05:58.231Z,1013.68
2017-08-28T09:06:52.284Z,1013.72
2017-08-28T09:07:47.458Z,1013.63
2017-08-28T09:08:36.507Z,1013.65
2017-08-28T09:09:30.544Z,1013.67
2017-08-28T09:10:18.570Z,1013.62
2017-08-28T09:11:12.724Z,1013.67
2017-08-28T09:12:06.841Z,1013.67
2017-08-28T09:12:55.861Z,1013.67
2017-08-28T09:13:50.984Z,1013.70
2017-08-28T09:14:44.943Z,1013.66
2017-08-28T09:15:39.144Z,1013.64
2017-08-28T09:16:28.128Z,1013.63
2017-08-28T09:17:23.196Z,1013.69
2017-08-28T09:18:18.273Z,1013.66
2017-08-28T09:19:18.323Z,1013.69
2017-08-28T09:20:18.343Z,1013.67
2017-08-28T09:21:12.458Z,1013.67
2017-08-28T09:22:12.432Z,1013.68
2017-08-28T09:23:07.584Z,1013.60
2017-08-28T09:24:01.620Z,1013.63
2017-08-28T09:24:50.739Z,1013.64
2017-08-28T09:25:45.715Z,1013.63
2017-08-28T09:26:34.833Z,1013.59
2017-08-28T09:27:23.900Z,1013.63
2017-08-28T09:28:17.942Z,1013.63
2017-08-28T09:29:12.046Z,1013.64
2017-08-28T09:30:07.063Z,1013.65
2017-08-28T09:30:56.134Z,1013.66
2017-08-28T09:31:56.160Z,1013.66
2017-08-28T09:32:44.216Z,1013.69
2017-08-28T09:33:32.300Z,1013.68
2017-08-28T09:34:27.447Z,1013.67
2017-08-28T09:35:16.351Z,1013.68
2017-08-28T09:36:05.450Z,1013.67
2017-08-28T09:37:00.610Z,1013.70
2017-08-28T09:37:48.754Z,1013.68
2017-08-28T09:38:48.623Z,1013.68
2017-08-28T09:39:36.722Z,1013.71
2017-08-28T09:40:25.813Z,1013.73
2017-08-28T09:41:20.865Z,1013.68
2017-08-28T09:42:15.989Z,1013.67
2017-08-28T09:43:11.063Z,1013.65
2017-08-28T09:44:05.024Z,1013.61
2017-08-28T09:45:00.089Z,1013.70
2017-08-28T09:45:55.224Z,1013.65
2017-08-28T09:46:49.234Z,1013.67
2017-08-28T09:47:49.399Z,1013.67
2017-08-28T09:48:49.289Z,1013.69
2017-08-28T09:49:43.562Z,1013.66
2017-08-28T09:50:38.487Z,1013.65
2017-08-28T09:51:27.521Z,1013.68
2017-08-28T09:52:21.529Z,1013.61
2017-08-28T09:53:21.667Z,1013.68
2017-08-28T09:54:16.786Z,1013.69
2017-08-28T09:55:10.823Z,1013.65
2017-08-28T09:56:04.890Z,1013.66
2017-08-28T09:56:59.938Z,1013.70
2017-08-28T09:57:54.108Z,1013.68
2017-08-28T09:58:48.066Z,1013.70
2017-08-28T09:59:36.130Z,1013.67
2017-08-28T10:00:30.345Z,1013.70
2017-08-28T10:01:24.376Z,1013.69
2017-08-28T10:02:13.393Z,1013.68
2017-08-28T10:03:02.371Z,1013.71
2017-08-28T10:03:57.545Z,1013.67
2017-08-28T10:04:52.532Z,1013.64
2017-08-28T10:05:41.637Z,1013.67
2017-08-28T10:06:29.692Z,1013.63
2017-08-28T10:07:23.743Z,1013.67
2017-08-28T10:08:17.873Z,1013.64
2017-08-28T10:09:06.820Z,1013.62
2017-08-28T10:09:55.042Z,1013.64
2017-08-28T10:10:49.291Z,1013.65
2017-08-28T10:11:44.128Z,1013.65
2017-08-28T10:12:33.168Z,1013.62
2017-08-28T10:13:27.244Z,1013.64
2017-08-28T10:14:16.264Z,1013.64
2017-08-28T10:15:10.347Z,1013.51
2017-08-28T10:15:59.676Z,1013.55
2017-08-28T10:16:54.522Z,1013.56
2017-08-28T10:17:54.746Z,1013.55
2017-08-28T10:18:49.553Z,1013.52
2017-08-28T10:19:43.799Z,1013.56
2017-08-28T10:20:37.898Z,1013.53
2017-08-28T10:21:26.914Z,1013.55
2017-08-28T10:22:21.948Z,1013.58
2017-08-28T10:23:15.967Z,1013.55
2017-08-28T10:24:10.111Z,1013.53
2017-08-28T10:24:59.221Z,1013.53
2017-08-28T10:25:48.258Z,1013.55
2017-08-28T10:26:43.331Z,1013.52
2017-08-28T10:27:32.450Z,1013.51
2017-08-28T10:28:32.506Z,1013.51
2017-08-28T10:29:32.631Z,1013.51
2017-08-28T10:30:32.713Z,1013.49
2017-08-28T10:31:21.726Z,1013.47
2017-08-28T10:32:15.850Z,1013.46
2017-08-28T10:33:09.974Z,1013.47
2017-08-28T10:34:05.015Z,1013.41
2017-08-28T10:35:00.008Z,1013.43
2017-08-28T10:35:55.146Z,1013.43
2017-08-28T10:36:50.262Z,1013.37
2017-08-28T10:37:50.705Z,1013.35
2017-08-28T10:38:51.333Z,1013.37
2017-08-28T10:39:40.469Z,1013.40
2017-08-28T10:40:34.452Z,1013.36
2017-08-28T10:41:29.587Z,1013.33
2017-08-28T10:42:18.682Z,1013.34
2017-08-28T10:43:13.811Z,1013.30
2017-08-28T10:44:02.815Z,1013.30
2017-08-28T10:45:02.894Z,1013.32
2017-08-28T10:45:51.940Z,1013.28
2017-08-28T10:46:51.994Z,1013.29
2017-08-28T10:47:52.157Z,1013.30
2017-08-28T10:48:41.125Z,1013.29
2017-08-28T10:49:36.286Z,1013.22
2017-08-28T10:50:30.261Z,1013.20
2017-08-28T10:51:30.402Z,1013.19
2017-08-28T10:52:25.491Z,1013.20
2017-08-28T10:53:14.559Z,1013.20
2017-08-28T10:54:08.687Z,1013.18
2017-08-28T10:55:03.803Z,1013.15
2017-08-28T10:56:03.883Z,1013.12
2017-08-28T10:57:04.960Z,1013.19
2017-08-28T10:57:59.924Z,1013.20
2017-08-28T10:58:55.066Z,1013.20
2017-08-28T10:59:55.244Z,1013.18
2017-08-28T11:00:43.218Z,1013.17
2017-08-28T11:01:32.294Z,1013.17
2017-08-28T11:02:26.394Z,1013.13
2017-08-28T11:03:26.440Z,1013.15
2017-08-28T11:04:20.588Z,1013.12
2017-08-28T11:05:09.693Z,1013.05
2017-08-28T11:06:09.698Z,1013.07
2017-08-28T11:07:04.812Z,1013.09
2017-08-28T11:07:59.938Z,1013.12